• Join FlightAware (Why Join?)
  • Login
  • US Flag 
12:05AM EDT


 

Airport Tracker/Info


-or-


 

Live Flight TrackerFlight Track Log ✈ UAL1038 ✈ 23-Sep-2013 ✈ KLAX - KIAD

Flight Track Log - Related Links

Times and Time Zones

All times are in EDT time to prevent confusion due to time zone crossing. See the UAL1038 flight status page for this flight to view local times or setup timezone preferences in your user account.

Time Position Orientation Groundspeed Altitude Reporting Facility
EDT Latitude Longitude Course Direction KTS MPH feet Rate Location/Type
02:45AM 33.9328 -118.4472 40° Northeast 181 208 1,600  Level Los Angeles Center
02:46AM 33.8892 -118.5089 230° Southwest 230 265 4,000 2,280 Climbing Los Angeles Center
02:47AM 33.6333 -118.3231 90° East  Level FlightAware Approximate
02:47AM 33.8228 -118.5153 185° South 272 313 6,300  Level Los Angeles Center
02:48AM 33.6351 -118.1658 23° Northeast  Level FlightAware Approximate
02:48AM 33.7453 -118.5189 182° South 280 322 9,500  Level Los Angeles Center
02:49AM 33.7419 -118.0748 40° Northeast  Level FlightAware Approximate
02:49AM 33.6794 -118.4728 150° Southeast 318 366 11,100  Level Los Angeles Center
02:50AM 33.8498 -117.9835 40° Northeast  Level FlightAware Approximate
02:50AM 33.7036 -118.3444 77° East 345 397 13,600  Level Los Angeles Center
02:51AM 33.7367 -118.2264 71° East 394 453 14,600 1,440 Climbing Los Angeles Center
02:52AM 33.7714 -118.0969 72° East 409 471 16,600 1,860 Climbing Los Angeles Center
02:53AM 33.8472 -117.9944 48° Northeast 421 484 18,400 1,620 Climbing Los Angeles Center
02:54AM 33.9464 -117.9089 36° Northeast 438 504 19,900 1,560 Climbing Los Angeles Center
02:55AM 34.0461 -117.8175 37° Northeast 451 519 21,600 1,500 Climbing Los Angeles Center
02:56AM 34.1414 -117.7083 43° Northeast 471 542 23,000 1,320 Climbing Los Angeles Center
02:57AM 34.2303 -117.5875 48° Northeast 480 552 24,300 1,320 Climbing Los Angeles Center
02:59AM 34.2896 -117.3927 66° East  Level Estimated
03:00AM 34.4311 -117.1336 66° East 511 588 28,400  Level Los Angeles Center
03:01AM 34.4928 -116.9794 64° Northeast 512 589 29,900 1,320 Climbing Los Angeles Center
03:02AM 34.5553 -116.8250 64° Northeast 513 590 31,100 1,200 Climbing Los Angeles Center
03:03AM 34.6181 -116.6692 64° Northeast 516 594 32,300 1,380 Climbing Los Angeles Center
03:04AM 34.6800 -116.5142 64° Northeast 514 592 33,900 1,380 Climbing Los Angeles Center
03:05AM 34.7406 -116.3619 64° Northeast 504 580 35,200 1,020 Climbing Los Angeles Center
03:06AM 34.8125 -116.1806 64° Northeast 500 575 36,200 780 Climbing Los Angeles Center
03:07AM 34.8728 -116.0281 64° Northeast 501 577 37,000 360 Climbing Los Angeles Center
03:08AM 34.9342 -115.8747 64° Northeast 504 580 37,000  Level Los Angeles Center
03:09AM 34.9947 -115.7206 64° Northeast 506 582 37,000  Level Los Angeles Center
03:10AM 35.0539 -115.5678 65° Northeast 502 578 37,000  Level Los Angeles Center
03:11AM 35.1269 -115.3836 64° Northeast 503 579 37,000  Level Los Angeles Center
03:12AM 35.1861 -115.2303 65° Northeast 501 577 37,000  Level Los Angeles Center
03:13AM 35.2422 -115.0875 64° Northeast 500 575 37,000  Level Los Angeles Center
03:14AM 35.3011 -114.9336 65° Northeast 500 575 37,000  Level Los Angeles Center
03:15AM 35.3606 -114.7797 65° Northeast 501 577 37,000  Level Los Angeles Center
03:16AM 35.4189 -114.6258 65° Northeast 501 577 37,000  Level Los Angeles Center
03:17AM 35.4756 -114.4758 65° Northeast 491 565 37,000  Level Los Angeles Center
03:18AM 35.5333 -114.3206 65° Northeast 497 572 37,000  Level Los Angeles Center
03:20AM 35.5911 -114.1669 65° Northeast 502 578 37,000  Level Los Angeles Center
03:21AM 35.6514 -114.0108 65° Northeast 506 582 37,000  Level Los Angeles Center
03:22AM 35.7097 -113.8547 65° Northeast 505 581 37,000  Level Los Angeles Center
03:23AM 35.7644 -113.6992 67° East 496 571 37,000  Level Los Angeles Center
03:24AM 35.8214 -113.5447 66° East 500 575 37,000  Level Los Angeles Center
03:25AM 35.8819 -113.3861 65° Northeast 506 582 37,000  Level Los Angeles Center
03:26AM 35.9369 -113.2300 66° East 501 577 37,000  Level Los Angeles Center
03:27AM 36.0044 -113.0442 66° East 501 577 37,000  Level Los Angeles Center
03:28AM 36.0606 -112.8861 66° East 503 579 37,000  Level Los Angeles Center
03:29AM 36.1169 -112.7294 66° East 503 579 37,000  Level Los Angeles Center
03:30AM 36.1736 -112.5717 66° East 502 578 37,000  Level Los Angeles Center
03:31AM 36.2297 -112.4125 66° East 506 582 37,000  Level Los Angeles Center
03:32AM 36.2847 -112.2553 67° East 503 579 37,000  Level Los Angeles Center
03:33AM 36.3411 -112.0972 66° East 503 579 37,000  Level Los Angeles Center
03:34AM 36.3961 -111.9381 67° East 504 580 37,000  Level Los Angeles Center
03:35AM 36.4525 -111.7789 66° East 505 581 37,000  Level Los Angeles Center
03:36AM 36.5081 -111.6192 67° East 505 581 37,000  Level Los Angeles Center
03:37AM 36.5631 -111.4583 67° East 507 583 37,000  Level Los Angeles Center
03:38AM 36.6189 -111.2967 67° East 509 586 37,100 540 Climbing Los Angeles Center
03:39AM 36.6725 -111.1375 67° East 504 580 38,100 720 Climbing Los Angeles Center
03:40AM 36.7350 -110.9481 68° East 503 579 38,800 360 Climbing Denver Center
03:41AM 36.7900 -110.7886 67° East 501 577 39,000 60 Climbing Denver Center
03:42AM 36.8433 -110.6272 68° East 503 579 39,000  Level Denver Center
03:43AM 36.8967 -110.4667 67° East 503 579 39,000  Level Denver Center
03:44AM 36.9497 -110.3061 67° East 502 578 39,000  Level Denver Center
03:45AM 37.0056 -110.1381 67° East 502 578 39,000  Level Denver Center
03:46AM 37.0569 -109.9844 67° East 500 575 39,000  Level Denver Center
03:47AM 37.1150 -109.8044 68° East 498 573 39,000  Level Denver Center
03:48AM 37.1653 -109.6483 68° East 498 573 39,000  Level Denver Center
03:49AM 37.2153 -109.4925 68° East 501 577 39,000  Level Denver Center
03:50AM 37.2564 -109.3633 68° East 501 577 39,000  Level Denver Center
03:51AM 37.3244 -109.1531 68° East 507 583 39,000  Level Denver Center
03:52AM 37.3731 -108.9969 69° East 503 579 39,000  Level Denver Center
03:53AM 37.4233 -108.8372 68° East 511 588 39,000  Level Denver Center
03:54AM 37.4806 -108.6533 69° East 507 583 39,000  Level Denver Center
03:55AM 37.5292 -108.4967 69° East 505 581 39,000  Level Denver Center
03:56AM 37.5781 -108.3381 69° East 505 581 39,000  Level Denver Center
03:57AM 37.6275 -108.1819 68° East 502 578 39,000  Level Denver Center
03:58AM 37.6833 -107.9981 69° East 501 577 39,000  Level Denver Center
03:59AM 37.7311 -107.8403 69° East 502 578 39,000  Level Denver Center
04:00AM 37.7783 -107.6825 69° East 502 578 39,000  Level Denver Center
04:01AM 37.8333 -107.4958 69° East 504 580 39,000  Level Denver Center
04:02AM 37.8806 -107.3386 69° East 502 578 39,000  Level Denver Center
04:03AM 37.9264 -107.1800 70° East 500 575 39,000  Level Denver Center
04:04AM 37.9806 -106.9969 69° East 504 580 39,000  Level Denver Center
04:05AM 38.0269 -106.8394 69° East 502 578 39,000  Level Denver Center
04:06AM 38.0725 -106.6817 70° East 500 575 39,000  Level Denver Center
04:07AM 38.1231 -106.5047 70° East 504 580 39,000  Level Denver Center
04:08AM 38.1708 -106.3408 70° East 498 573 39,000  Level Denver Center
04:09AM 38.2178 -106.1747 70° East 500 575 39,000  Level Denver Center
04:10AM 38.2647 -106.0097 70° East 498 573 39,000  Level Denver Center
04:11AM 38.3097 -105.8506 70° East 499 574 39,000  Level Denver Center
04:12AM 38.3606 -105.6739 70° East 498 573 39,000  Level Denver Center
04:13AM 38.4061 -105.5072 71° East 500 575 39,000  Level Denver Center
04:14AM 38.4522 -105.3403 71° East 501 577 39,000  Level Denver Center
04:15AM 38.4972 -105.1756 71° East 495 570 39,000  Level Denver Center
04:16AM 38.5422 -105.0100 71° East 496 571 39,000  Level Denver Center
04:17AM 38.5869 -104.8453 71° East 496 571 39,000  Level Denver Center
04:18AM 38.6319 -104.6789 71° East 497 572 39,000  Level Denver Center
04:19AM 38.6769 -104.5111 71° East 500 575 39,000  Level Denver Center
04:20AM 38.7217 -104.3400 71° East 506 582 39,000  Level Denver Center
04:21AM 38.7669 -104.1706 71° East 505 581 39,000  Level Denver Center
04:22AM 38.8128 -103.9981 71° East 499 574 39,000  Level Denver Center
04:23AM 38.8556 -103.8342 71° East 501 577 39,000  Level Denver Center
04:24AM 38.8989 -103.6639 72° East 504 580 39,000  Level Denver Center
04:25AM 38.9422 -103.4956 72° East 501 577 39,000  Level Denver Center
04:26AM 38.9850 -103.3275 72° East 498 573 39,000  Level Denver Center
04:27AM 39.0356 -103.1294 72° East 491 565 39,000  Level Denver Center
04:28AM 39.0775 -102.9636 72° East 490 564 39,000  Level Denver Center
04:29AM 39.1189 -102.7989 72° East 488 562 39,000  Level Denver Center
04:30AM 39.1606 -102.6278 73° East 488 562 39,000  Level Denver Center
04:31AM 39.2003 -102.4697 72° East 485 558 39,000  Level Denver Center
04:32AM 39.2397 -102.3094 72° East 488 562 39,000  Level Denver Center
04:33AM 39.2775 -102.1481 73° East 490 564 39,000  Level Denver Center
04:34AM 39.3228 -101.9606 73° East 490 564 39,000  Level Denver Center
04:35AM 39.3603 -101.8072 72° East 491 565 39,000  Level Denver Center
04:36AM 39.4019 -101.6186 74° East 490 564 39,000  Level Denver Center
04:37AM 39.4292 -101.4494 78° East 500 575 39,000  Level Denver Center
04:38AM 39.4575 -101.2853 77° East 493 567 39,000  Level Denver Center
04:39AM 39.4953 -101.0628 78° East 497 572 39,000  Level Denver Center
04:40AM 39.5222 -100.8961 78° East 496 571 39,000  Level Denver Center
04:41AM 39.5500 -100.7289 78° East 497 572 39,000  Level Denver Center
04:42AM 39.5828 -100.5356 78° East 495 570 39,000  Level Denver Center
04:43AM 39.6081 -100.3703 79° East 492 566 39,000  Level Denver Center
04:44AM 39.6353 -100.2039 78° East 494 568 39,000  Level Denver Center
04:45AM 39.6617 -100.0386 78° East 491 565 39,000  Level Denver Center
04:46AM 39.6933 -99.8378 78° East 493 567 39,000  Level Denver Center
04:47AM 39.7197 -99.6681 79° East 484 557 39,000  Level Denver Center
04:48AM 39.7461 -99.4972 79° East 482 555 39,000  Level Denver Center
04:49AM 39.7722 -99.3239 79° East 489 563 39,000  Level Denver Center
04:50AM 39.7983 -99.1506 79° East 491 565 39,000  Level Denver Center
04:51AM 39.8247 -98.9778 79° East 489 563 39,000  Level Denver Center
04:52AM 39.8492 -98.8075 79° East 487 560 39,000  Level Minneapolis Center
04:53AM 39.8806 -98.6372 76° East 486 559 39,000  Level Minneapolis Center
04:54AM 39.9122 -98.4658 76° East 487 560 39,000  Level Minneapolis Center
04:55AM 39.9433 -98.2914 77° East 492 566 39,000  Level Minneapolis Center
04:56AM 39.9756 -98.1156 76° East 498 573 39,000  Level Minneapolis Center
04:57AM 40.0061 -97.9400 77° East 499 574 39,000  Level Minneapolis Center
04:58AM 40.0372 -97.7656 77° East 498 573 39,000  Level Minneapolis Center
04:59AM 40.0664 -97.5928 78° East 492 566 39,000  Level Minneapolis Center
05:01AM 40.0972 -97.4208 77° East 489 563 39,000  Level Minneapolis Center
05:02AM 40.1286 -97.2336 78° East 489 563 39,000  Level Minneapolis Center
05:03AM 40.1581 -97.0619 77° East 488 562 39,000  Level Minneapolis Center
05:04AM 40.1869 -96.8883 78° East 488 562 39,000  Level Minneapolis Center
05:05AM 40.2150 -96.7172 78° East 486 559 39,000  Level Minneapolis Center
05:06AM 40.2436 -96.5472 78° East 482 555 39,000  Level Minneapolis Center
05:07AM 40.2711 -96.3767 78° East 482 555 39,000  Level Minneapolis Center
05:08AM 40.2981 -96.2075 78° East 479 551 39,000  Level Minneapolis Center
05:09AM 40.3258 -96.0364 78° East 480 552 39,000  Level Minneapolis Center
05:10AM 40.3525 -95.8636 78° East 484 557 39,000  Level Minneapolis Center
05:11AM 40.3803 -95.6886 78° East 490 564 39,000  Level Minneapolis Center
05:12AM 40.4083 -95.5131 78° East 494 568 39,000  Level Minneapolis Center
05:13AM 40.4350 -95.3400 79° East 490 564 39,000  Level Minneapolis Center
05:14AM 40.4619 -95.1669 78° East 487 560 39,000  Level Minneapolis Center
05:15AM 40.4869 -94.9931 79° East 487 560 39,000  Level Minneapolis Center
05:16AM 40.5131 -94.8183 79° East 488 562 39,000  Level Minneapolis Center
05:17AM 40.5394 -94.6431 79° East 490 564 39,000  Level Minneapolis Center
05:18AM 40.5647 -94.4639 79° East 488 562 39,000  Level Minneapolis Center
05:19AM 40.5900 -94.2886 79° East 490 564 39,000  Level Minneapolis Center
05:20AM 40.6142 -94.1139 80° East 490 564 39,000  Level Minneapolis Center
05:21AM 40.6386 -93.9383 80° East 490 564 39,000  Level Minneapolis Center
05:22AM 40.6614 -93.7622 80° East 491 565 39,000  Level Minneapolis Center
05:23AM 40.6872 -93.5850 79° East 493 567 39,000  Level Minneapolis Center
05:24AM 40.7169 -93.3728 79° East 494 568 39,000  Level Minneapolis Center
05:24AM 40.7269 -93.3011 80° East 493 567 39,000  Level Chicago Center
05:25AM 40.7494 -93.1269 80° East 486 559 39,000  Level Chicago Center
05:26AM 40.7725 -92.9531 80° East 484 557 39,000  Level Chicago Center
05:27AM 40.7953 -92.7781 80° East 484 557 39,000  Level Chicago Center
05:28AM 40.8183 -92.6033 80° East 484 557 39,000  Level Chicago Center
05:29AM 40.8392 -92.4286 81° East 482 555 39,000  Level Chicago Center
05:30AM 40.8619 -92.2539 80° East 484 557 39,000  Level Chicago Center
05:31AM 40.8833 -92.0775 81° East 486 559 39,000  Level Chicago Center
05:32AM 40.9056 -91.9003 81° East 489 563 39,000  Level Chicago Center
05:33AM 40.9311 -91.6878 81° East 491 565 39,000  Level Chicago Center
05:34AM 40.9506 -91.5097 82° East 492 566 39,000  Level Chicago Center
05:35AM 40.9722 -91.3317 81° East 493 567 39,000  Level Chicago Center
05:36AM 40.9883 -91.1817 82° East 493 567 39,000  Level Chicago Center
05:37AM 41.0139 -90.9675 81° East 492 566 39,000  Level Chicago Center
05:38AM 41.0333 -90.7872 82° East 493 567 39,000  Level Chicago Center
05:39AM 41.0544 -90.6078 81° East 492 566 39,000  Level Chicago Center
05:40AM 41.0739 -90.4261 82° East 494 568 39,000  Level Chicago Center
05:41AM 41.0922 -90.2442 82° East 496 571 39,000  Level Chicago Center
05:42AM 41.1111 -90.0653 82° East 489 563 39,000  Level Chicago Center
05:43AM 41.1264 -89.9194 82° East 493 567 39,000  Level Chicago Center
05:44AM 41.1464 -89.7361 82° East 499 574 39,000  Level Chicago Center
05:45AM 41.1625 -89.5556 83° East 491 565 39,000  Level Chicago Center
05:46AM 41.1639 -89.3728 89° East 491 565 39,000  Level Chicago Center
05:47AM 41.1636 -89.1569 90° East 485 558 39,000  Level Chicago Center
05:48AM 41.1644 -88.9792 90° East 484 557 39,000  Level Chicago Center
05:49AM 41.1675 -88.7969 89° East 494 568 39,000  Level Chicago Center
05:50AM 41.1647 -88.6197 91° East 486 559 39,000  Level Chicago Center
05:51AM 41.1394 -88.4431 101° East 488 562 39,000  Level Chicago Center
05:52AM 41.1150 -88.2692 101° East 483 556 39,000  Level Chicago Center
05:53AM 41.0883 -88.0936 101° East 490 564 39,000  Level Chicago Center
05:54AM 41.0647 -87.9183 100° East 491 565 39,000  Level Chicago Center
05:55AM 41.0397 -87.7436 101° East 491 565 39,000  Level Chicago Center
05:56AM 41.0125 -87.5672 102° East 494 568 39,000  Level Chicago Center
05:57AM 40.9864 -87.3919 101° East 490 564 39,000  Level Chicago Center
05:58AM 40.9592 -87.2172 102° East 490 564 39,000  Level Chicago Center
05:59AM 40.9289 -87.0061 101° East 489 563 39,000  Level Chicago Center
06:00AM 40.9000 -86.8319 102° East 490 564 39,000  Level Chicago Center
06:01AM 40.8769 -86.6792 101° East 489 563 39,000  Level Chicago Center
06:02AM 40.8481 -86.5056 102° East 488 562 39,000  Level Chicago Center
06:03AM 40.8211 -86.3311 101° East 487 560 39,000  Level Chicago Center
06:04AM 40.7928 -86.1575 102° East 488 562 39,000  Level Chicago Center
06:06AM 40.7639 -85.9842 102° East 487 560 39,000  Level Chicago Center
06:07AM 40.7353 -85.8108 102° East 487 560 39,000  Level Chicago Center
06:08AM 40.7006 -85.6022 102° East 488 562 39,000  Level Chicago Center
06:09AM 40.6714 -85.4297 103° East 485 558 39,000  Level Chicago Center
06:10AM 40.6450 -85.2575 101° East 486 559 39,000  Level Chicago Center
06:11AM 40.6156 -85.0844 103° East 485 558 39,000  Level Chicago Center
06:11AM 40.5997 -85.0119 106° East 487 560 39,000  Level Indianapolis Center
06:12AM 40.5669 -84.8250 103° East 488 562 39,000  Level Indianapolis Center
06:13AM 40.5367 -84.6508 103° East 489 563 39,000  Level Indianapolis Center
06:14AM 40.5061 -84.4792 103° East 484 557 39,000  Level Indianapolis Center
06:15AM 40.4747 -84.3044 103° East 491 565 39,000  Level Indianapolis Center
06:16AM 40.4439 -84.1297 103° East 491 565 39,000  Level Indianapolis Center
06:17AM 40.4114 -83.9556 104° East 491 565 39,000  Level Indianapolis Center
06:18AM 40.3783 -83.7800 104° East 494 568 39,000  Level Indianapolis Center
06:19AM 40.3464 -83.6056 103° East 490 564 39,000  Level Indianapolis Center
06:20AM 40.3139 -83.4294 104° East 493 567 39,000  Level Indianapolis Center
06:21AM 40.2806 -83.2544 104° East 493 567 39,000  Level Indianapolis Center
06:22AM 40.2469 -83.0778 104° East 495 570 39,000  Level Indianapolis Center
06:23AM 40.2122 -82.9017 104° East 497 572 39,000  Level Indianapolis Center
06:24AM 40.1778 -82.7256 104° East 498 573 39,000  Level Indianapolis Center
06:25AM 40.1464 -82.5478 103° East 501 577 39,000  Level Indianapolis Center
06:26AM 40.1356 -82.3689 94° East 497 572 39,000  Level Indianapolis Center
06:27AM 40.1225 -82.1867 95° East 502 578 39,000  Level Indianapolis Center
06:28AM 40.1094 -82.0064 95° East 501 577 39,000  Level Indianapolis Center
06:29AM 40.0942 -81.7889 95° East 501 577 39,000  Level Indianapolis Center
06:30AM 40.0817 -81.6300 96° East 500 575 39,000  Level Indianapolis Center
06:31AM 40.0500 -81.4472 103° East 518 596 39,000  Level Indianapolis Center
06:32AM 40.0011 -81.2744 110° East 509 586 39,000  Level Indianapolis Center
06:33AM 39.9467 -81.0789 110° East 508 585 39,000  Level Indianapolis Center
06:34AM 39.8972 -80.9064 110° East 506 582 39,000  Level Indianapolis Center
06:35AM 39.8481 -80.7325 110° East 509 586 39,000 -180 Level Indianapolis Center
06:37AM 39.7781 -80.4892 110° East 510 587 38,600 -540 Descending Indianapolis Center
06:38AM 39.7281 -80.3161 111° Southeast 510 587 37,700 -960 Descending Indianapolis Center
06:39AM 39.6783 -80.1433 110° East 510 587 36,700 -1,140 Descending Indianapolis Center
06:40AM 39.6278 -79.9683 111° Southeast 513 590 35,500 -2,340 Descending Indianapolis Center
06:41AM 39.5756 -79.7931 111° Southeast 517 595 32,100 -3,480 Descending Indianapolis Center
06:42AM 39.5258 -79.6222 111° Southeast 509 586 28,500 -2,520 Descending Indianapolis Center
06:43AM 39.4825 -79.4547 108° East 492 566 27,000 -960 Descending Indianapolis Center
06:44AM 39.4494 -79.2717 103° East 466 536 26,500 -1,080 Descending Cleveland Center
06:45AM 39.4217 -79.1119 103° East 459 528 24,800 -2,160 Descending Cleveland Center
06:46AM 39.3958 -78.9586 102° East 450 518 22,200 -2,700 Descending Cleveland Center
06:47AM 39.3667 -78.7667 101° East 419 482 18,900 -2,220 Descending Potomac TRACON
06:48AM 39.3336 -78.6317 108° East 418 481 17,200 -1,500 Descending Washington Center
06:49AM 39.3078 -78.4911 103° East 412 474 15,800 -2,100 Descending Washington Center
06:50AM 39.2778 -78.3533 106° East 400 460 13,000 -2,640 Descending Washington Center
06:51AM 39.2178 -78.2383 124° Southeast 376 433 10,600 -1,500 Descending Washington Center
06:52AM 39.1619 -78.1294 123° Southeast 376 433 10,000 -360 Descending Washington Center
06:53AM 39.1075 -78.0283 125° Southeast 365 420 9,900 -840 Descending Washington Center
06:54AM 39.0594 -77.9361 124° Southeast 337 388 8,400 -1,560 Descending Washington Center
06:55AM 39.0092 -77.8436 125° Southeast 298 343 6,800 -960 Descending Washington Center
06:57AM 38.9667 -77.6833 109° East 276 318 6,000 -360 Descending Potomac TRACON
06:58AM 38.9333 -77.6167 123° Southeast 256 295 6,000  Level Potomac TRACON
06:59AM 38.8667 -77.5833 159° South 253 291 6,000 -300 Level Potomac TRACON
07:00AM 38.8167 -77.5667 165° South 251 289 5,500 -540 Descending Potomac TRACON
07:01AM 38.7500 -77.5833 191° South 250 288 5,000 -360 Descending Potomac TRACON
07:02AM 38.7000 -77.5333 142° Southeast 260 299 4,800 -600 Descending Potomac TRACON
07:03AM 38.7333 -77.4667 57° Northeast 223 257 3,900 -900 Descending Potomac TRACON
07:04AM 38.7833 -77.4667 360° North 187 215 3,100 -840 Descending Potomac TRACON
07:05AM 38.8333 -77.4667 360° North 185 213 2,300 -900 Descending Potomac TRACON
07:06AM 38.8833 -77.4667 360° North 148 170 1,400 -840 Descending Potomac TRACON
07:07AM 38.9167 -77.4667 360° North 129 148 800 -660 Descending Potomac TRACON